createdAt,value
2022-09-18T00:00:50.867Z,76.49
2022-09-18T00:05:53.033Z,76.64
2022-09-18T00:10:55.107Z,77.00
2022-09-18T00:15:57.388Z,77.26
2022-09-18T00:21:07.656Z,77.73
2022-09-18T00:26:11.472Z,77.08
2022-09-18T00:31:16.688Z,77.28
2022-09-18T00:36:19.410Z,77.03
2022-09-18T00:41:25.138Z,77.19
2022-09-18T00:46:33.469Z,77.27
2022-09-18T00:51:37.564Z,77.09
2022-09-18T00:56:39.882Z,76.83
2022-09-18T01:01:41.965Z,76.69
2022-09-18T01:06:52.305Z,76.99
2022-09-18T01:12:23.387Z,77.28
2022-09-18T01:17:48.842Z,76.99
2022-09-18T01:23:28.188Z,77.11
2022-09-18T01:28:34.243Z,76.50
2022-09-18T01:33:45.756Z,76.85
2022-09-18T01:38:52.803Z,77.03
2022-09-18T01:44:00.655Z,77.36
2022-09-18T01:49:06.024Z,77.05
2022-09-18T01:54:16.297Z,77.05
2022-09-18T01:59:28.431Z,77.25
2022-09-18T02:04:40.764Z,76.88
2022-09-18T02:09:46.738Z,76.68
2022-09-18T02:14:53.942Z,76.89
2022-09-18T02:20:35.469Z,76.50
2022-09-18T02:25:58.581Z,77.18
2022-09-18T02:31:01.441Z,76.84
2022-09-18T02:36:44.190Z,77.32
2022-09-18T02:42:05.973Z,77.11
2022-09-18T02:47:35.157Z,77.41
2022-09-18T02:52:48.235Z,77.28
2022-09-18T02:57:57.574Z,76.76
2022-09-18T03:03:00.443Z,76.90
2022-09-18T03:08:19.491Z,76.86
2022-09-18T03:13:21.685Z,77.10
2022-09-18T03:18:24.428Z,76.96
2022-09-18T03:23:26.945Z,77.18
2022-09-18T03:28:41.771Z,77.30
2022-09-18T03:33:44.100Z,77.47
2022-09-18T03:38:47.523Z,77.51
2022-09-18T03:43:50.075Z,77.55
2022-09-18T03:48:53.656Z,77.83
2022-09-18T03:53:57.452Z,78.00
2022-09-18T03:59:08.776Z,78.31
2022-09-18T04:04:26.009Z,78.50
2022-09-18T04:09:46.958Z,78.90
2022-09-18T04:14:50.622Z,78.94
2022-09-18T04:19:53.853Z,79.41
2022-09-18T04:24:56.230Z,79.81
2022-09-18T04:29:58.576Z,79.90
2022-09-18T04:35:00.929Z,80.17
2022-09-18T04:40:07.862Z,80.30
2022-09-18T04:45:11.068Z,80.28
2022-09-18T04:50:15.356Z,80.71
2022-09-18T04:55:37.442Z,80.69
2022-09-18T05:00:43.307Z,80.72
2022-09-18T05:05:45.644Z,80.85
2022-09-18T05:10:48.508Z,80.62
2022-09-18T05:15:56.268Z,80.79
2022-09-18T05:21:03.956Z,81.06
2022-09-18T05:26:07.353Z,80.88
2022-09-18T05:31:09.583Z,80.63
2022-09-18T05:36:17.512Z,80.63
2022-09-18T05:41:22.108Z,80.58
2022-09-18T05:46:24.517Z,80.34
2022-09-18T05:51:34.047Z,80.17
2022-09-18T05:56:36.765Z,80.28
2022-09-18T06:01:57.517Z,80.24
2022-09-18T06:07:28.813Z,80.16
2022-09-18T06:12:32.278Z,80.06
2022-09-18T06:17:40.287Z,80.15
2022-09-18T06:22:45.018Z,79.99
2022-09-18T06:27:58.639Z,79.85
2022-09-18T06:33:09.077Z,79.81
2022-09-18T06:38:11.341Z,79.83
2022-09-18T06:43:18.861Z,79.53
2022-09-18T06:48:39.768Z,79.65
2022-09-18T06:53:42.179Z,79.70
2022-09-18T06:58:45.419Z,79.56
2022-09-18T07:03:51.297Z,79.36
2022-09-18T07:08:58.245Z,79.31
2022-09-18T07:14:20.721Z,79.02
2022-09-18T07:19:25.042Z,79.03
2022-09-18T07:24:28.554Z,77.99
2022-09-18T07:29:33.097Z,77.37
2022-09-18T07:34:35.458Z,77.18
2022-09-18T07:39:37.756Z,76.54
2022-09-18T07:45:01.638Z,75.81
2022-09-18T07:50:05.900Z,75.77
2022-09-18T07:55:08.470Z,75.46
2022-09-18T08:00:13.044Z,74.58
2022-09-18T08:05:18.205Z,74.01
2022-09-18T08:10:30.494Z,73.78
2022-09-18T08:15:58.843Z,72.97
2022-09-18T08:21:21.017Z,72.90
2022-09-18T08:26:26.436Z,72.70
2022-09-18T08:31:30.072Z,72.58
2022-09-18T08:36:33.176Z,72.10
2022-09-18T08:42:33.907Z,72.01
2022-09-18T08:47:53.032Z,71.19
2022-09-18T08:53:03.253Z,71.38
2022-09-18T08:58:32.051Z,70.83
2022-09-18T09:03:57.422Z,70.48
2022-09-18T09:09:14.936Z,70.09
2022-09-18T09:14:52.744Z,69.68
2022-09-18T09:19:57.158Z,70.30
2022-09-18T09:25:08.511Z,69.85
2022-09-18T09:30:23.247Z,69.80
2022-09-18T09:35:56.204Z,68.43
2022-09-18T09:41:16.521Z,68.34
2022-09-18T09:46:52.302Z,67.87
2022-09-18T09:52:17.783Z,67.18
2022-09-18T09:57:43.847Z,67.28
2022-09-18T10:02:53.366Z,68.00
2022-09-18T10:08:19.661Z,67.21
2022-09-18T10:13:47.219Z,67.73
2022-09-18T10:18:53.418Z,67.39
2022-09-18T10:24:25.880Z,66.64
2022-09-18T10:29:35.789Z,67.70
2022-09-18T10:34:48.843Z,67.55
2022-09-18T10:40:02.506Z,67.00
2022-09-18T10:45:25.959Z,66.37
2022-09-18T10:50:34.576Z,66.86
2022-09-18T10:55:51.605Z,66.93
2022-09-18T11:01:04.122Z,67.54
2022-09-18T11:06:15.277Z,67.26
2022-09-18T11:11:39.862Z,67.01
2022-09-18T11:16:50.917Z,67.19
2022-09-18T11:21:56.323Z,67.52
2022-09-18T11:27:23.962Z,67.86
2022-09-18T11:32:50.819Z,68.25
2022-09-18T11:37:57.603Z,68.35
2022-09-18T11:43:03.170Z,68.32
2022-09-18T11:48:37.057Z,68.24
2022-09-18T11:53:42.180Z,68.01
2022-09-18T11:58:58.759Z,68.69
2022-09-18T12:04:19.531Z,68.63
2022-09-18T12:09:39.365Z,69.21
2022-09-18T12:15:05.661Z,69.37
2022-09-18T12:20:28.697Z,69.60
2022-09-18T12:25:43.525Z,69.48
2022-09-18T12:31:26.512Z,70.10
2022-09-18T12:36:50.344Z,70.63
2022-09-18T12:42:02.390Z,71.05
2022-09-18T12:47:18.659Z,71.39
2022-09-18T12:53:08.515Z,71.65
2022-09-18T12:58:30.061Z,71.04
2022-09-18T13:03:37.527Z,71.63
2022-09-18T13:08:55.223Z,72.23
2022-09-18T13:14:05.798Z,73.06
2022-09-18T13:19:24.480Z,73.02
2022-09-18T13:24:30.236Z,72.87
2022-09-18T13:29:54.268Z,73.76
2022-09-18T13:34:58.477Z,73.09
2022-09-18T13:40:11.285Z,73.25
2022-09-18T13:45:27.402Z,74.33
2022-09-18T13:50:30.240Z,73.81
2022-09-18T13:55:49.346Z,75.43
2022-09-18T14:00:55.008Z,74.88
2022-09-18T14:05:57.263Z,75.16
2022-09-18T14:11:15.135Z,75.90
2022-09-18T14:16:24.510Z,76.35
2022-09-18T14:21:34.821Z,76.72
2022-09-18T14:26:39.736Z,76.68
2022-09-18T14:31:45.247Z,77.51
2022-09-18T14:36:48.535Z,77.33
2022-09-18T14:41:52.369Z,77.95
2022-09-18T14:47:00.904Z,78.98
2022-09-18T14:52:04.899Z,78.68
2022-09-18T14:57:11.056Z,78.32
2022-09-18T15:02:34.385Z,80.06
2022-09-18T15:07:40.143Z,79.04
2022-09-18T15:12:42.782Z,78.79
2022-09-18T15:17:51.102Z,79.59
2022-09-18T15:22:57.016Z,79.53
2022-09-18T15:28:04.111Z,79.75
2022-09-18T15:33:12.499Z,79.23
2022-09-18T15:38:18.150Z,79.65
2022-09-18T15:43:41.223Z,80.57
2022-09-18T15:48:45.556Z,79.78
2022-09-18T15:54:13.275Z,81.10
2022-09-18T15:59:30.933Z,80.80
2022-09-18T16:04:36.200Z,80.11
2022-09-18T16:09:42.342Z,80.53
2022-09-18T16:14:50.362Z,80.45
2022-09-18T16:19:54.395Z,80.62
2022-09-18T16:24:57.760Z,80.69
2022-09-18T16:29:59.972Z,80.85
2022-09-18T16:35:11.536Z,80.89
2022-09-18T16:40:17.742Z,81.08
2022-09-18T16:45:20.115Z,80.76
2022-09-18T16:50:24.938Z,81.11
2022-09-18T16:55:27.360Z,80.97
2022-09-18T17:00:32.731Z,80.90
2022-09-18T17:05:35.164Z,81.07
2022-09-18T17:10:37.508Z,81.15
2022-09-18T17:15:39.917Z,81.11
2022-09-18T17:20:42.532Z,81.19
2022-09-18T17:25:48.560Z,81.37
2022-09-18T17:30:54.477Z,81.26
2022-09-18T17:35:56.790Z,81.31
2022-09-18T17:41:00.815Z,81.36
2022-09-18T17:46:05.573Z,81.72
2022-09-18T17:51:14.096Z,81.72
2022-09-18T17:56:18.463Z,81.98
2022-09-18T18:01:23.603Z,81.81
2022-09-18T18:06:26.236Z,81.83
2022-09-18T18:11:29.747Z,82.02
2022-09-18T18:16:35.362Z,82.27
2022-09-18T18:21:38.525Z,82.22
2022-09-18T18:26:44.241Z,82.29
2022-09-18T18:31:48.511Z,82.23
2022-09-18T18:36:54.960Z,82.29
2022-09-18T18:41:59.654Z,82.64
2022-09-18T18:47:01.996Z,82.43
2022-09-18T18:52:05.377Z,82.49
2022-09-18T18:57:07.769Z,82.26
2022-09-18T19:02:13.252Z,82.27
2022-09-18T19:07:15.515Z,82.64
2022-09-18T19:12:19.323Z,82.46
2022-09-18T19:17:21.658Z,82.69
2022-09-18T19:22:23.821Z,82.76
2022-09-18T19:27:26.012Z,82.71
2022-09-18T19:32:28.161Z,83.03
2022-09-18T19:37:30.439Z,83.00
2022-09-18T19:42:36.705Z,83.13
2022-09-18T19:47:42.941Z,82.89
2022-09-18T19:52:47.573Z,83.02
2022-09-18T19:57:54.505Z,83.34
2022-09-18T20:02:59.807Z,83.54
2022-09-18T20:08:02.176Z,83.36
2022-09-18T20:13:04.637Z,83.38
2022-09-18T20:18:07.472Z,83.17
2022-09-18T20:23:09.606Z,83.26
2022-09-18T20:28:11.790Z,83.56
2022-09-18T20:33:14.002Z,83.60
2022-09-18T20:38:17.190Z,83.80
2022-09-18T20:43:19.400Z,83.65
2022-09-18T20:48:26.523Z,83.76
2022-09-18T20:53:30.854Z,83.95
2022-09-18T20:58:35.310Z,83.79
2022-09-18T21:03:39.029Z,84.15
2022-09-18T21:08:46.151Z,84.26
2022-09-18T21:13:48.665Z,83.98
2022-09-18T21:18:53.571Z,84.20
2022-09-18T21:24:01.566Z,84.33
2022-09-18T21:29:08.039Z,84.70
2022-09-18T21:34:24.559Z,84.91
2022-09-18T21:39:28.455Z,84.68
2022-09-18T21:44:34.152Z,84.75
2022-09-18T21:49:36.377Z,84.76
2022-09-18T21:54:38.720Z,84.75
2022-09-18T21:59:40.790Z,84.73
2022-09-18T22:04:45.831Z,84.76
2022-09-18T22:09:48.156Z,84.96
2022-09-18T22:14:50.423Z,84.88
2022-09-18T22:19:52.698Z,84.98
2022-09-18T22:24:55.661Z,85.06
2022-09-18T22:30:00.071Z,85.12
2022-09-18T22:35:03.130Z,85.22
2022-09-18T22:40:06.611Z,85.28
2022-09-18T22:45:10.301Z,85.27
2022-09-18T22:50:12.428Z,85.34
2022-09-18T22:55:14.712Z,85.25
2022-09-18T23:00:16.859Z,85.12
2022-09-18T23:05:18.974Z,85.37
2022-09-18T23:10:22.263Z,85.46
2022-09-18T23:15:24.412Z,85.50
2022-09-18T23:20:26.519Z,85.09
2022-09-18T23:25:28.710Z,85.49
2022-09-18T23:30:31.209Z,85.66
2022-09-18T23:35:33.356Z,85.77
2022-09-18T23:40:35.913Z,85.89
2022-09-18T23:45:38.037Z,85.69
2022-09-18T23:50:42.417Z,85.95
2022-09-18T23:55:45.503Z,85.84
